Time;durP1;ratioP1;P1;durP2;ratioP2;P2;SDS_P1;SDS_P2;PMS_P1;PMS_P2;Temp;Humidity;BMP_temperature;BMP_pressure;BME280_temperature;BME280_humidity;BME280_pressure;Samples;Min_cycle;Max_cycle;Signal;HPM_P1;HPM_P2
2021/09/17 00:00:31;;;;;;;22.20;11.10;;;21.20;99.90;;;;;;5081433;28;20033;-82
2021/09/17 00:02:58;;;;;;;14.00;11.15;;;21.20;99.90;;;;;;5081294;28;20025;-82
2021/09/17 00:05:24;;;;;;;16.90;13.32;;;21.40;99.90;;;;;;5069812;28;20078;-82
2021/09/17 00:07:50;;;;;;;20.92;12.23;;;21.50;99.90;;;;;;5085338;28;20116;-82
2021/09/17 00:10:17;;;;;;;15.25;12.18;;;21.40;99.90;;;;;;5086711;28;20056;-82
2021/09/17 00:12:43;;;;;;;15.48;12.50;;;21.30;99.90;;;;;;5082267;28;20036;-81
2021/09/17 00:15:11;;;;;;;16.65;13.45;;;21.40;99.90;;;;;;5075973;28;20113;-82
2021/09/17 00:17:37;;;;;;;17.88;13.55;;;21.40;99.90;;;;;;5077070;28;20028;-82
2021/09/17 00:20:05;;;;;;;21.50;13.90;;;21.40;99.90;;;;;;5064703;28;20474;-81
2021/09/17 00:22:31;;;;;;;17.73;13.60;;;21.20;99.90;;;;;;5090980;28;20095;-81
2021/09/17 00:24:57;;;;;;;16.98;14.95;;;21.10;99.90;;;;;;5088970;28;20074;-81
2021/09/17 00:27:23;;;;;;;26.63;15.50;;;21.00;99.90;;;;;;5079426;28;20020;-81
2021/09/17 00:29:49;;;;;;;27.92;15.90;;;21.00;99.90;;;;;;5075062;28;20027;-81
2021/09/17 00:32:15;;;;;;;21.35;14.98;;;20.90;99.90;;;;;;5077447;28;20028;-81
2021/09/17 00:34:41;;;;;;;22.15;17.13;;;20.80;99.90;;;;;;5088180;28;20114;-81
2021/09/17 00:37:07;;;;;;;19.77;16.17;;;20.90;99.90;;;;;;5076589;28;20050;-81
2021/09/17 00:39:33;;;;;;;19.23;17.15;;;20.90;99.90;;;;;;5090533;28;20032;-81
2021/09/17 00:41:59;;;;;;;19.83;17.92;;;20.80;99.90;;;;;;5073491;28;20044;-81
2021/09/17 00:44:27;;;;;;;18.52;16.73;;;20.80;99.90;;;;;;5066827;28;20036;-81
2021/09/17 00:46:53;;;;;;;26.38;19.70;;;20.70;99.90;;;;;;5081692;28;20036;-81
2021/09/17 00:49:21;;;;;;;22.60;18.90;;;20.60;99.90;;;;;;5084019;28;20031;-81
2021/09/17 00:51:48;;;;;;;25.38;17.95;;;20.50;99.90;;;;;;5084075;28;20028;-81
2021/09/17 00:54:15;;;;;;;28.38;21.23;;;20.50;99.90;;;;;;5096351;28;20020;-81
2021/09/17 00:56:43;;;;;;;23.48;20.05;;;20.30;99.90;;;;;;5074065;28;20456;-81
2021/09/17 00:59:09;;;;;;;24.52;20.25;;;20.20;99.90;;;;;;5096143;28;20008;-81
2021/09/17 01:01:36;;;;;;;23.30;21.00;;;20.20;99.90;;;;;;5095723;28;20028;-81
2021/09/17 01:04:03;;;;;;;21.00;18.73;;;20.10;99.90;;;;;;5066316;28;20031;-81
2021/09/17 01:06:29;;;;;;;22.48;17.10;;;20.10;99.90;;;;;;5064975;28;20029;-80
2021/09/17 01:08:58;;;;;;;17.67;16.00;;;20.10;99.90;;;;;;5079004;28;20485;-81
2021/09/17 01:11:24;;;;;;;16.25;14.75;;;20.10;99.90;;;;;;5080009;28;20118;-81
2021/09/17 01:13:51;;;;;;;17.70;15.77;;;20.30;99.90;;;;;;5076065;28;20032;-81
2021/09/17 01:16:17;;;;;;;14.43;13.20;;;20.30;99.90;;;;;;5097787;28;20024;-80
2021/09/17 01:18:45;;;;;;;15.65;14.05;;;20.30;99.90;;;;;;5098664;28;20077;-80
2021/09/17 01:21:11;;;;;;;15.27;13.10;;;20.40;99.90;;;;;;5103346;28;20043;-80
2021/09/17 01:23:37;;;;;;;11.95;10.70;;;20.40;99.90;;;;;;5094128;28;20032;-80
2021/09/17 01:26:03;;;;;;;11.32;10.18;;;20.40;99.90;;;;;;5102865;28;20024;-81
2021/09/17 01:28:31;;;;;;;13.98;10.98;;;20.40;99.90;;;;;;5092048;28;20033;-81
2021/09/17 01:30:58;;;;;;;15.32;12.00;;;20.50;99.90;;;;;;5097205;28;20013;-80
2021/09/17 01:33:25;;;;;;;11.77;10.73;;;20.50;99.90;;;;;;5081643;28;20047;-80
2021/09/17 01:35:59;;;;;;;10.38;9.35;;;20.50;99.90;;;;;;5105891;28;20077;-80
2021/09/17 01:38:27;;;;;;;9.98;9.15;;;20.50;99.90;;;;;;5106164;28;20036;-80
2021/09/17 01:40:53;;;;;;;10.30;9.05;;;20.60;99.90;;;;;;5101687;28;20017;-80
2021/09/17 01:43:20;;;;;;;12.15;9.52;;;20.60;99.90;;;;;;5106569;28;20020;-81
2021/09/17 01:45:46;;;;;;;10.90;9.88;;;20.70;99.90;;;;;;5092534;28;20032;-81
2021/09/17 01:48:12;;;;;;;11.68;9.50;;;20.70;99.90;;;;;;5090562;28;20080;-81
2021/09/17 01:50:37;;;;;;;10.88;9.65;;;20.70;99.90;;;;;;5099465;28;20369;-81
2021/09/17 01:53:03;;;;;;;11.20;10.15;;;20.70;99.90;;;;;;5081100;28;20093;-80
2021/09/17 01:55:29;;;;;;;12.25;10.85;;;20.70;99.90;;;;;;5063486;28;20039;-81
2021/09/17 01:57:55;;;;;;;10.60;9.57;;;20.80;99.90;;;;;;5078338;28;20021;-81
2021/09/17 02:00:21;;;;;;;10.75;9.65;;;20.80;99.90;;;;;;5083196;28;20044;-81
2021/09/17 02:02:47;;;;;;;11.02;9.32;;;20.80;99.90;;;;;;5083170;28;20099;-81
2021/09/17 02:05:13;;;;;;;12.63;9.98;;;20.80;99.90;;;;;;5088841;28;20028;-81
2021/09/17 02:07:40;;;;;;;19.98;11.23;;;20.80;99.90;;;;;;5069764;28;20032;-81
2021/09/17 02:10:08;;;;;;;16.27;10.15;;;20.80;99.90;;;;;;5095393;28;20043;-81
2021/09/17 02:12:34;;;;;;;13.48;11.07;;;20.80;99.90;;;;;;5092400;28;20024;-81
2021/09/17 02:15:00;;;;;;;13.70;12.10;;;20.80;99.90;;;;;;5078620;28;20103;-81
2021/09/17 02:17:26;;;;;;;12.70;11.48;;;20.70;99.90;;;;;;5075251;28;20016;-81
2021/09/17 02:19:52;;;;;;;12.60;11.50;;;20.70;99.90;;;;;;5078460;28;20051;-83
2021/09/17 02:22:18;;;;;;;13.77;12.23;;;20.70;99.90;;;;;;5082119;28;20024;-81
2021/09/17 02:24:44;;;;;;;17.00;12.13;;;20.70;99.90;;;;;;5087289;28;20046;-81
2021/09/17 02:27:10;;;;;;;13.63;12.23;;;20.70;99.90;;;;;;5096399;28;20044;-81
2021/09/17 02:29:36;;;;;;;11.95;10.82;;;20.70;99.90;;;;;;5098712;28;20043;-81
2021/09/17 02:32:03;;;;;;;13.13;12.02;;;20.70;99.90;;;;;;5084895;28;20033;-81
2021/09/17 02:34:28;;;;;;;19.02;15.32;;;20.70;99.90;;;;;;5089132;28;20017;-81
2021/09/17 02:36:54;;;;;;;20.33;17.50;;;20.80;99.90;;;;;;5079151;28;20444;-82
2021/09/17 02:39:23;;;;;;;24.42;22.02;;;20.80;99.90;;;;;;5087345;28;20306;-83
2021/09/17 02:41:49;;;;;;;25.48;23.05;;;20.80;99.90;;;;;;5076267;28;20044;-81
2021/09/17 02:44:15;;;;;;;24.17;21.65;;;20.80;99.90;;;;;;5084211;28;20052;-81
2021/09/17 02:46:41;;;;;;;27.17;20.90;;;20.80;99.90;;;;;;5082986;28;20028;-81
2021/09/17 02:49:07;;;;;;;24.92;22.58;;;20.80;99.90;;;;;;5085101;28;20033;-81
2021/09/17 02:51:33;;;;;;;25.15;22.95;;;20.70;99.90;;;;;;5080672;28;20039;-81
2021/09/17 02:54:00;;;;;;;27.45;24.70;;;20.60;99.90;;;;;;5080487;28;20051;-81
2021/09/17 02:56:26;;;;;;;27.40;24.40;;;20.50;99.90;;;;;;5086893;28;20040;-81
2021/09/17 02:58:52;;;;;;;31.98;24.83;;;20.50;99.90;;;;;;5068648;28;20036;-81
2021/09/17 03:01:18;;;;;;;30.13;27.20;;;20.50;99.90;;;;;;5071529;28;20024;-82
2021/09/17 03:03:44;;;;;;;30.52;27.65;;;20.50;99.90;;;;;;5068242;28;20095;-81
2021/09/17 03:06:10;;;;;;;31.10;27.85;;;20.60;99.90;;;;;;5081363;28;20028;-81
2021/09/17 03:08:36;;;;;;;33.22;29.20;;;20.60;99.90;;;;;;5071157;28;20030;-81
2021/09/17 03:11:02;;;;;;;31.50;28.33;;;20.70;99.90;;;;;;5084528;28;20031;-81
2021/09/17 03:13:28;;;;;;;33.88;30.23;;;20.70;99.90;;;;;;5081189;28;20093;-81
2021/09/17 03:15:54;;;;;;;31.92;28.73;;;20.70;99.90;;;;;;5079421;28;20645;-81
2021/09/17 03:18:21;;;;;;;30.42;27.60;;;20.80;99.90;;;;;;5080479;28;20112;-81
2021/09/17 03:20:49;;;;;;;30.00;27.25;;;20.90;99.90;;;;;;5086650;28;20024;-81
2021/09/17 03:23:15;;;;;;;31.20;28.08;;;20.90;99.90;;;;;;5063494;28;20184;-81
2021/09/17 03:25:41;;;;;;;29.42;26.90;;;20.90;99.90;;;;;;5078007;28;20097;-81
2021/09/17 03:28:07;;;;;;;28.40;25.58;;;21.00;99.90;;;;;;5082222;28;20100;-81
2021/09/17 03:30:33;;;;;;;29.73;26.98;;;21.00;99.90;;;;;;5077748;28;20556;-81
2021/09/17 03:32:59;;;;;;;33.90;30.48;;;21.10;99.90;;;;;;5069119;28;20080;-81
2021/09/17 03:35:25;;;;;;;30.98;28.27;;;21.10;99.90;;;;;;5087088;28;20059;-81
2021/09/17 03:37:51;;;;;;;30.92;27.67;;;21.10;99.90;;;;;;5078213;28;20025;-81
2021/09/17 03:40:17;;;;;;;32.38;29.13;;;21.10;99.90;;;;;;5087799;28;20109;-80
2021/09/17 03:42:43;;;;;;;32.13;28.33;;;21.10;99.90;;;;;;5098697;28;20064;-81
2021/09/17 03:45:10;;;;;;;30.42;27.65;;;21.20;99.90;;;;;;5100846;28;20024;-81
2021/09/17 03:47:36;;;;;;;30.52;27.40;;;21.20;99.90;;;;;;5091447;28;20028;-81
2021/09/17 03:50:03;;;;;;;27.88;25.15;;;21.20;99.90;;;;;;5092031;28;20263;-81
2021/09/17 03:52:29;;;;;;;31.83;28.83;;;21.30;99.90;;;;;;5072611;28;20032;-80
2021/09/17 03:54:55;;;;;;;17.42;12.07;;;21.30;99.90;;;;;;5087468;28;20077;-81
2021/09/17 03:57:21;;;;;;;10.10;5.65;;;20.90;99.90;;;;;;5094407;28;20497;-81
2021/09/17 03:59:47;;;;;;;36.17;8.15;;;20.60;99.90;;;;;;5082231;28;20185;-81
2021/09/17 04:02:13;;;;;;;69.82;14.38;;;20.10;99.90;;;;;;5072896;28;20028;-83
2021/09/17 04:04:40;;;;;;;104.18;13.93;;;19.50;99.90;;;;;;5054486;28;20096;-83
2021/09/17 04:07:07;;;;;;;53.28;11.63;;;18.90;99.90;;;;;;5077395;28;20033;-81
2021/09/17 04:09:33;;;;;;;34.58;8.18;;;18.30;99.90;;;;;;5088117;28;20043;-82
2021/09/17 04:12:00;;;;;;;36.50;7.47;;;18.00;99.90;;;;;;5084603;28;20024;-82
2021/09/17 04:14:26;;;;;;;18.38;6.22;;;18.10;99.90;;;;;;5095840;28;20052;-82
2021/09/17 04:16:52;;;;;;;26.92;7.55;;;18.20;99.90;;;;;;5067222;28;20048;-81
2021/09/17 04:19:18;;;;;;;21.95;6.93;;;18.30;99.90;;;;;;5097747;28;20017;-82
2021/09/17 04:21:44;;;;;;;53.25;9.23;;;18.30;99.90;;;;;;5093425;28;20039;-82
2021/09/17 04:24:10;;;;;;;29.25;6.68;;;18.30;99.90;;;;;;5110752;28;20034;-82
2021/09/17 04:26:37;;;;;;;29.15;7.05;;;18.30;99.90;;;;;;5092555;28;20028;-82
2021/09/17 04:29:04;;;;;;;15.40;6.47;;;18.30;99.90;;;;;;5064746;28;20035;-81
2021/09/17 04:31:32;;;;;;;8.73;4.80;;;18.40;99.90;;;;;;5063645;28;20024;-81
2021/09/17 04:33:58;;;;;;;10.57;5.22;;;18.40;99.90;;;;;;5068109;28;20028;-81
2021/09/17 04:36:24;;;;;;;13.20;5.85;;;18.40;99.90;;;;;;5088814;28;20052;-81
2021/09/17 04:38:50;;;;;;;16.05;5.50;;;18.50;99.90;;;;;;5090240;28;20128;-80
2021/09/17 04:41:16;;;;;;;12.48;5.53;;;18.60;99.90;;;;;;5095127;28;20090;-81
2021/09/17 04:43:42;;;;;;;7.47;5.32;;;18.60;99.90;;;;;;5107742;28;20028;-82
2021/09/17 04:46:08;;;;;;;15.10;5.00;;;18.50;99.90;;;;;;5102577;28;20113;-81
2021/09/17 04:48:34;;;;;;;15.10;6.65;;;18.60;99.90;;;;;;5090057;28;20104;-82
2021/09/17 04:51:00;;;;;;;12.38;6.30;;;18.60;99.90;;;;;;5088250;28;20062;-81
2021/09/17 04:53:25;;;;;;;15.15;6.65;;;18.80;99.90;;;;;;5089519;28;20494;-81
2021/09/17 04:55:52;;;;;;;16.38;7.35;;;18.90;99.90;;;;;;5093230;28;20021;-81
2021/09/17 04:58:21;;;;;;;17.88;6.88;;;18.80;99.90;;;;;;5107757;28;20032;-82
2021/09/17 05:00:47;;;;;;;11.13;5.18;;;18.70;99.90;;;;;;5096636;28;20025;-81
2021/09/17 05:03:13;;;;;;;13.18;5.13;;;18.50;99.90;;;;;;5082809;28;20024;-80
2021/09/17 05:05:39;;;;;;;10.13;3.33;;;18.40;99.90;;;;;;5088353;28;20048;-81
2021/09/17 05:08:05;;;;;;;5.15;2.85;;;18.40;99.90;;;;;;5090101;28;20028;-80
2021/09/17 05:10:31;;;;;;;5.68;3.92;;;18.30;99.90;;;;;;5071563;28;20031;-81
2021/09/17 05:12:57;;;;;;;3.58;2.33;;;18.30;99.90;;;;;;5073534;28;20057;-82
2021/09/17 05:15:23;;;;;;;3.90;2.67;;;18.30;99.90;;;;;;5062357;28;20050;-81
2021/09/17 05:17:49;;;;;;;9.18;3.05;;;18.40;99.90;;;;;;5088785;28;20071;-81
2021/09/17 05:20:16;;;;;;;5.78;3.03;;;18.50;99.90;;;;;;5084692;28;20100;-81
2021/09/17 05:22:42;;;;;;;8.05;2.50;;;18.50;99.90;;;;;;5063255;28;20029;-81
2021/09/17 05:25:09;;;;;;;6.57;3.08;;;18.50;99.90;;;;;;5062041;28;20033;-81
2021/09/17 05:27:35;;;;;;;3.58;3.22;;;18.50;99.90;;;;;;5062038;28;20101;-81
2021/09/17 05:30:01;;;;;;;8.40;3.25;;;18.60;99.90;;;;;;5080168;28;20448;-81
2021/09/17 05:32:27;;;;;;;6.72;2.75;;;18.70;99.90;;;;;;5064506;28;20037;-81
2021/09/17 05:34:53;;;;;;;2.17;1.92;;;18.80;99.90;;;;;;5078822;28;20028;-81
2021/09/17 05:37:19;;;;;;;3.08;1.77;;;18.80;99.90;;;;;;5079719;28;20023;-81
2021/09/17 05:39:45;;;;;;;5.57;1.77;;;18.60;99.90;;;;;;5068062;28;20124;-81
2021/09/17 05:42:11;;;;;;;5.28;2.67;;;18.50;99.90;;;;;;5069048;28;20051;-81
2021/09/17 05:44:37;;;;;;;6.00;3.10;;;18.40;99.90;;;;;;5050431;28;20025;-81
2021/09/17 05:47:03;;;;;;;5.28;2.05;;;18.40;99.90;;;;;;5072025;28;20053;-80
2021/09/17 05:49:29;;;;;;;7.45;2.58;;;18.40;99.90;;;;;;5070638;28;20032;-81
2021/09/17 05:51:54;;;;;;;4.43;2.03;;;18.30;99.90;;;;;;5077314;28;20431;-82
2021/09/17 05:54:22;;;;;;;3.55;2.00;;;18.30;99.90;;;;;;5068974;28;20055;-81
2021/09/17 05:56:48;;;;;;;4.28;2.13;;;18.30;99.90;;;;;;5070911;28;20017;-81
2021/09/17 05:59:14;;;;;;;7.50;1.98;;;18.20;99.90;;;;;;5086683;28;20031;-81
2021/09/17 06:01:40;;;;;;;4.82;1.67;;;18.10;99.90;;;;;;5082386;28;20029;-80
2021/09/17 06:04:06;;;;;;;6.20;1.60;;;18.10;99.90;;;;;;5078869;28;20056;-81
2021/09/17 06:06:32;;;;;;;4.13;1.60;;;18.10;99.90;;;;;;5092959;28;20083;-81
2021/09/17 06:09:00;;;;;;;3.25;2.83;;;18.00;99.90;;;;;;5090282;28;20025;-81
2021/09/17 06:11:26;;;;;;;4.07;1.63;;;18.00;99.90;;;;;;5085089;28;20096;-81
2021/09/17 06:13:52;;;;;;;9.32;2.33;;;18.00;99.90;;;;;;5086248;28;20059;-81
2021/09/17 06:16:18;;;;;;;4.72;2.10;;;18.00;99.90;;;;;;5088815;28;20020;-81
2021/09/17 06:18:44;;;;;;;2.15;1.38;;;18.10;99.90;;;;;;5088616;28;20021;-81
2021/09/17 06:21:10;;;;;;;4.63;1.88;;;18.20;99.90;;;;;;5088437;28;20050;-81
2021/09/17 06:23:36;;;;;;;1.63;1.50;;;18.20;99.90;;;;;;5082998;28;20059;-81
2021/09/17 06:26:03;;;;;;;4.57;1.90;;;18.20;99.90;;;;;;5067600;28;20033;-81
2021/09/17 06:28:29;;;;;;;4.90;2.17;;;18.20;99.90;;;;;;5073416;28;20036;-81
2021/09/17 06:30:55;;;;;;;6.60;1.88;;;18.30;99.90;;;;;;5086638;28;20032;-82
2021/09/17 06:33:21;;;;;;;4.18;2.30;;;18.30;99.90;;;;;;5084858;28;20035;-81
2021/09/17 06:35:47;;;;;;;6.95;1.75;;;18.30;99.90;;;;;;5067919;28;20017;-81
2021/09/17 06:38:12;;;;;;;4.25;1.90;;;18.40;99.90;;;;;;5077142;28;20028;-83
2021/09/17 06:40:39;;;;;;;6.07;1.85;;;18.40;99.90;;;;;;5102875;28;20089;-82
2021/09/17 06:43:04;;;;;;;5.65;2.15;;;18.50;99.90;;;;;;5061155;28;20038;-81
2021/09/17 06:45:31;;;;;;;4.65;2.05;;;18.40;99.90;;;;;;5088688;28;20386;-81
2021/09/17 06:48:01;;;;;;;3.03;1.80;;;18.40;99.90;;;;;;5068003;28;20025;-80
2021/09/17 06:50:29;;;;;;;3.10;1.67;;;18.40;99.90;;;;;;5078510;28;20021;-81
2021/09/17 06:52:56;;;;;;;3.95;1.63;;;18.40;99.90;;;;;;5076645;28;20025;-80
2021/09/17 06:55:27;;;;;;;7.68;3.38;;;18.40;99.90;;;;;;5076407;28;20474;-82
2021/09/17 06:57:55;;;;;;;5.20;2.78;;;18.50;99.90;;;;;;5064403;28;20054;-79
2021/09/17 07:00:23;;;;;;;3.50;2.22;;;18.50;99.90;;;;;;5059521;28;20021;-78
2021/09/17 07:02:49;;;;;;;10.65;3.13;;;18.60;99.90;;;;;;5076934;28;20552;-79
2021/09/17 07:05:16;;;;;;;6.53;2.08;;;18.60;99.90;;;;;;5076422;28;20037;-78
2021/09/17 07:07:42;;;;;;;5.90;1.90;;;18.70;99.90;;;;;;5075983;28;20068;-78
2021/09/17 07:10:11;;;;;;;4.13;2.05;;;18.80;99.90;;;;;;5077106;28;20028;-79
2021/09/17 07:12:37;;;;;;;7.63;2.45;;;18.90;99.90;;;;;;5064560;28;20036;-82
2021/09/17 07:15:07;;;;;;;4.72;1.50;;;18.90;99.90;;;;;;5086657;28;20008;-81
2021/09/17 07:17:33;;;;;;;2.15;1.13;;;19.00;99.90;;;;;;5073499;28;20043;-82
2021/09/17 07:20:00;;;;;;;3.20;1.70;;;19.00;99.90;;;;;;5087588;28;20017;-81
2021/09/17 07:22:27;;;;;;;9.50;2.17;;;18.90;99.90;;;;;;5088709;28;20036;-81
2021/09/17 07:24:56;;;;;;;2.85;1.77;;;19.00;99.90;;;;;;5070548;28;20123;-81
2021/09/17 07:27:22;;;;;;;1.15;1.13;;;19.10;99.90;;;;;;5087424;28;20032;-81
2021/09/17 07:29:48;;;;;;;3.40;1.63;;;19.10;99.90;;;;;;5086528;28;20048;-81
2021/09/17 07:32:14;;;;;;;2.65;1.38;;;19.10;99.90;;;;;;5087950;28;20478;-82
2021/09/17 07:34:40;;;;;;;7.63;1.80;;;19.00;99.90;;;;;;5088113;28;20031;-81
2021/09/17 07:37:06;;;;;;;5.20;1.58;;;18.90;99.90;;;;;;5088745;28;20525;-83
2021/09/17 07:39:32;;;;;;;8.07;2.30;;;18.90;99.90;;;;;;5088496;28;20024;-81
2021/09/17 07:41:58;;;;;;;6.55;2.78;;;19.00;99.90;;;;;;5087913;28;20032;-81
2021/09/17 07:44:24;;;;;;;3.05;1.98;;;19.00;99.90;;;;;;5075636;28;20103;-81
2021/09/17 07:46:50;;;;;;;5.30;1.95;;;19.10;99.90;;;;;;5067807;28;20025;-81
2021/09/17 07:49:16;;;;;;;3.00;2.00;;;19.20;99.90;;;;;;5063539;28;20479;-80
2021/09/17 07:51:45;;;;;;;7.43;2.03;;;19.20;99.90;;;;;;5060897;28;20054;-79
2021/09/17 07:54:11;;;;;;;6.50;1.80;;;19.20;99.90;;;;;;5082727;28;20333;-79
2021/09/17 07:56:37;;;;;;;5.70;1.50;;;19.40;99.90;;;;;;5074416;28;20024;-79
2021/09/17 07:59:03;;;;;;;2.20;0.73;;;19.40;99.90;;;;;;5084172;28;20021;-79
2021/09/17 08:01:29;;;;;;;14.70;1.92;;;19.40;99.90;;;;;;5086153;28;20351;-79
2021/09/17 08:03:55;;;;;;;2.60;0.77;;;19.60;99.90;;;;;;5083271;28;20381;-78
2021/09/17 08:06:21;;;;;;;8.82;1.52;;;19.80;99.90;;;;;;5083421;28;20096;-79
2021/09/17 08:08:47;;;;;;;2.13;0.98;;;19.90;99.90;;;;;;5084700;28;20025;-79
2021/09/17 08:11:12;;;;;;;4.53;1.20;;;20.10;99.90;;;;;;5084459;28;20028;-79
2021/09/17 08:13:38;;;;;;;3.08;1.02;;;20.10;99.90;;;;;;5083701;28;20021;-78
2021/09/17 08:16:04;;;;;;;3.65;1.10;;;20.10;99.90;;;;;;5075552;28;20028;-75
2021/09/17 08:18:30;;;;;;;2.30;1.23;;;20.10;99.90;;;;;;5073608;28;20131;-74
2021/09/17 08:20:59;;;;;;;1.23;1.00;;;20.10;99.90;;;;;;5062901;28;20025;-75
2021/09/17 08:23:26;;;;;;;1.48;0.98;;;20.20;99.90;;;;;;5076012;28;20055;-75
2021/09/17 08:25:54;;;;;;;1.98;0.88;;;20.10;99.90;;;;;;5076483;28;20150;-75
2021/09/17 08:28:22;;;;;;;8.30;1.13;;;20.20;99.90;;;;;;5076272;28;20052;-75
2021/09/17 08:30:48;;;;;;;1.55;0.80;;;20.30;99.90;;;;;;5073741;28;20496;-75
2021/09/17 08:33:14;;;;;;;2.88;0.93;;;20.30;99.90;;;;;;5058558;28;20082;-76
2021/09/17 08:35:40;;;;;;;6.45;0.90;;;20.30;99.90;;;;;;5076592;28;20025;-76
2021/09/17 08:38:06;;;;;;;0.98;0.50;;;20.30;99.90;;;;;;5076365;28;20031;-75
2021/09/17 08:40:32;;;;;;;0.77;0.68;;;20.30;99.90;;;;;;5076590;28;20398;-76
2021/09/17 08:43:00;;;;;;;1.17;1.05;;;20.20;99.90;;;;;;5058024;28;20052;-75
2021/09/17 08:45:30;;;;;;;3.20;1.13;;;20.20;99.90;;;;;;5074049;28;20028;-75
2021/09/17 08:48:01;;;;;;;1.90;0.88;;;20.30;99.90;;;;;;5071087;28;20029;-75
2021/09/17 08:50:28;;;;;;;3.37;1.00;;;20.30;99.90;;;;;;5061817;28;20864;-76
2021/09/17 08:52:57;;;;;;;1.10;0.90;;;20.50;99.90;;;;;;5056661;28;20029;-79
2021/09/17 08:55:23;;;;;;;3.95;1.30;;;20.60;99.90;;;;;;5062777;28;20021;-77
2021/09/17 08:57:50;;;;;;;1.10;1.00;;;20.80;99.90;;;;;;5055845;28;20485;-76
2021/09/17 09:00:42;;;;;;;4.72;0.82;;;21.10;99.90;;;;;;5063602;28;20501;-75
2021/09/17 09:03:09;;;;;;;1.23;0.77;;;21.40;99.90;;;;;;5083053;28;20040;-75
2021/09/17 09:05:41;;;;;;;1.98;1.00;;;21.50;99.90;;;;;;5094832;28;20035;-75
2021/09/17 09:08:07;;;;;;;0.70;0.65;;;21.70;99.90;;;;;;5095859;28;20078;-76
2021/09/17 09:10:34;;;;;;;2.35;0.90;;;21.80;99.90;;;;;;5078506;28;20433;-75
2021/09/17 09:13:07;;;;;;;2.17;0.82;;;21.90;99.90;;;;;;5075574;28;20025;-75
2021/09/17 09:15:35;;;;;;;0.95;0.80;;;21.70;99.90;;;;;;5075485;28;20105;-75
2021/09/17 09:18:05;;;;;;;2.08;0.80;;;21.90;99.90;;;;;;5073478;28;20337;-76
2021/09/17 09:20:33;;;;;;;1.58;0.98;;;22.00;99.90;;;;;;5058193;28;20027;-76
2021/09/17 09:23:19;;;;;;;1.10;1.00;;;22.10;99.90;;;;;;5075370;28;20060;-75
2021/09/17 09:25:50;;;;;;;1.95;0.85;;;22.40;99.90;;;;;;5073562;28;20021;-76
2021/09/17 09:28:23;;;;;;;1.52;1.08;;;22.30;99.90;;;;;;5074962;28;20390;-76
2021/09/17 09:30:51;;;;;;;1.38;0.73;;;22.40;99.90;;;;;;5073494;28;20051;-75
2021/09/17 09:33:21;;;;;;;3.80;1.13;;;22.30;99.90;;;;;;5075301;28;20021;-75
2021/09/17 09:35:53;;;;;;;2.10;0.55;;;22.40;99.90;;;;;;5055442;28;20044;-75
2021/09/17 09:38:41;;;;;;;2.58;0.90;;;22.50;99.90;;;;;;5055653;28;20075;-75
2021/09/17 09:41:10;;;;;;;1.48;0.90;;;22.60;99.90;;;;;;5037425;28;20029;-75
2021/09/17 09:43:40;;;;;;;2.60;1.10;;;22.60;99.90;;;;;;5056030;28;20495;-75
2021/09/17 09:46:23;;;;;;;2.65;2.20;;;22.80;99.90;;;;;;5075555;28;20063;-75
2021/09/17 09:48:59;;;;;;;1.85;1.40;;;22.90;99.90;;;;;;5082260;28;20050;-75
2021/09/17 09:51:26;;;;;;;6.40;2.08;;;22.90;99.90;;;;;;5069567;28;20046;-75
2021/09/17 09:53:52;;;;;;;4.25;0.82;;;22.80;99.90;;;;;;5056540;28;20024;-75
2021/09/17 09:56:20;;;;;;;1.38;1.05;;;22.70;99.90;;;;;;5056205;28;20021;-76
2021/09/17 09:58:50;;;;;;;1.67;1.20;;;22.80;99.90;;;;;;5055203;28;20072;-75
2021/09/17 10:01:19;;;;;;;6.38;2.25;;;22.80;99.90;;;;;;5055339;28;20514;-75
2021/09/17 10:03:56;;;;;;;1.25;0.82;;;22.80;99.90;;;;;;5070323;28;20028;-75
2021/09/17 10:06:27;;;;;;;1.17;0.90;;;23.00;99.90;;;;;;5053026;28;20028;-75
2021/09/17 10:08:56;;;;;;;4.93;0.90;;;23.00;99.90;;;;;;5074756;28;20055;-75
2021/09/17 10:11:23;;;;;;;0.80;0.77;;;22.90;99.90;;;;;;5073180;28;20087;-75
2021/09/17 10:13:52;;;;;;;2.15;1.13;;;22.90;99.90;;;;;;5072321;28;20028;-75
2021/09/17 10:16:22;;;;;;;6.60;1.05;;;22.80;99.90;;;;;;5073993;28;20043;-75
2021/09/17 10:18:57;;;;;;;3.92;1.50;;;22.70;99.90;;;;;;5073285;28;20031;-75
2021/09/17 10:21:52;;;;;;;3.08;1.27;;;22.60;99.90;;;;;;5074358;28;20021;-75
2021/09/17 10:24:28;;;;;;;3.55;2.15;;;22.60;99.90;;;;;;5053858;28;20047;-75
2021/09/17 10:27:20;;;;;;;5.32;1.52;;;22.70;99.90;;;;;;5069757;28;20029;-75
2021/09/17 10:30:00;;;;;;;4.47;2.03;;;22.60;99.90;;;;;;5045212;28;20025;-75
2021/09/17 10:32:58;;;;;;;4.57;2.33;;;22.50;99.90;;;;;;5049087;28;20088;-74
2021/09/17 10:35:27;;;;;;;2.45;1.90;;;22.30;99.90;;;;;;5007852;28;20516;-74
2021/09/17 10:37:59;;;;;;;5.03;2.50;;;22.10;99.90;;;;;;5065244;28;20017;-74
2021/09/17 10:40:39;;;;;;;2.47;2.28;;;21.90;99.90;;;;;;5072015;28;20060;-75
2021/09/17 10:43:12;;;;;;;2.83;2.05;;;21.70;99.90;;;;;;5063896;28;20129;-74
2021/09/17 10:45:42;;;;;;;2.20;1.90;;;21.60;99.90;;;;;;5058582;28;20356;-74
2021/09/17 10:48:10;;;;;;;4.07;2.47;;;21.20;99.90;;;;;;5057383;28;20047;-74
2021/09/17 10:50:45;;;;;;;8.38;2.25;;;20.80;99.90;;;;;;5053322;28;20079;-74
2021/09/17 10:53:13;;;;;;;9.10;3.58;;;20.60;99.90;;;;;;5055457;28;20059;-74
2021/09/17 10:56:01;;;;;;;9.48;2.95;;;20.40;99.90;;;;;;5053417;28;20036;-73
2021/09/17 10:58:30;;;;;;;11.13;3.40;;;20.20;99.90;;;;;;5053058;28;20041;-73
2021/09/17 11:01:10;;;;;;;16.63;3.65;;;20.00;99.90;;;;;;5072236;28;20387;-74
2021/09/17 11:03:38;;;;;;;10.23;3.35;;;20.00;99.90;;;;;;5072140;28;20029;-73
2021/09/17 11:06:20;;;;;;;14.77;3.45;;;19.90;99.90;;;;;;5074051;28;20082;-74
2021/09/17 11:08:59;;;;;;;16.35;5.05;;;19.80;99.90;;;;;;5072965;28;20060;-77
2021/09/17 11:11:49;;;;;;;7.65;2.95;;;19.70;99.90;;;;;;5073510;28;20028;-73
2021/09/17 11:14:26;;;;;;;15.05;4.70;;;19.70;99.90;;;;;;5068931;28;20016;-73
2021/09/17 11:16:53;;;;;;;5.97;2.63;;;19.70;99.90;;;;;;5079241;28;20390;-74
2021/09/17 11:19:20;;;;;;;8.32;5.43;;;19.80;99.90;;;;;;5052468;28;20021;-73
2021/09/17 11:21:49;;;;;;;8.18;4.47;;;20.00;99.90;;;;;;5058793;28;20044;-73
2021/09/17 11:24:27;;;;;;;4.10;2.10;;;20.10;99.90;;;;;;5073833;28;20028;-73
2021/09/17 11:26:55;;;;;;;3.40;2.25;;;20.10;99.90;;;;;;5070936;28;20020;-74
2021/09/17 11:29:23;;;;;;;5.03;2.75;;;20.00;99.90;;;;;;5072678;28;20025;-74
2021/09/17 11:31:52;;;;;;;4.53;2.88;;;20.00;99.90;;;;;;5064212;28;20492;-74
2021/09/17 11:34:21;;;;;;;8.23;2.60;;;20.00;99.90;;;;;;5052806;28;20082;-76
2021/09/17 11:37:01;;;;;;;8.63;3.35;;;20.10;99.90;;;;;;5065942;28;20036;-78
2021/09/17 11:39:36;;;;;;;5.55;1.85;;;20.10;99.90;;;;;;5062757;28;20029;-75
2021/09/17 11:42:07;;;;;;;1.92;1.63;;;20.30;99.90;;;;;;5066581;28;20029;-74
2021/09/17 11:44:52;;;;;;;7.78;2.97;;;20.40;99.90;;;;;;5059827;28;20029;-73
2021/09/17 11:47:28;;;;;;;5.47;2.88;;;20.50;99.90;;;;;;5052185;28;20510;-74
2021/09/17 11:49:56;;;;;;;1.60;1.33;;;20.70;99.90;;;;;;5061550;28;20029;-74
2021/09/17 11:52:23;;;;;;;5.25;3.03;;;20.70;99.90;;;;;;5082308;28;20059;-74
2021/09/17 11:55:07;;;;;;;4.18;2.30;;;20.70;99.90;;;;;;5053310;28;20017;-75
2021/09/17 11:57:41;;;;;;;8.35;6.60;;;20.70;99.90;;;;;;5074432;28;20028;-74
2021/09/17 12:00:13;;;;;;;7.20;6.03;;;20.70;99.90;;;;;;5064584;28;20036;-76
2021/09/17 12:02:40;;;;;;;10.35;7.68;;;20.80;99.90;;;;;;5052115;28;20089;-76
2021/09/17 12:05:13;;;;;;;10.65;9.23;;;20.90;99.90;;;;;;5071834;28;20506;-77
2021/09/17 12:07:40;;;;;;;6.80;5.40;;;21.20;99.90;;;;;;5059547;28;20037;-78
2021/09/17 12:10:13;;;;;;;14.55;7.43;;;21.30;99.90;;;;;;5058369;28;20029;-77
2021/09/17 12:12:43;;;;;;;7.25;3.15;;;21.40;99.90;;;;;;5052268;28;20590;-76
2021/09/17 12:15:23;;;;;;;6.45;4.72;;;21.40;99.90;;;;;;5056001;28;20038;-77
2021/09/17 12:18:03;;;;;;;7.72;3.47;;;21.70;99.90;;;;;;5073430;28;20027;-77
2021/09/17 12:21:04;;;;;;;6.57;2.95;;;21.90;99.90;;;;;;5067523;28;20394;-77
2021/09/17 12:23:39;;;;;;;7.15;3.92;;;21.80;99.90;;;;;;5072936;28;20025;-77
2021/09/17 12:26:14;;;;;;;7.32;5.28;;;22.00;99.90;;;;;;5062467;28;20557;-79
2021/09/17 12:28:44;;;;;;;5.30;2.25;;;22.10;99.90;;;;;;5081319;28;20102;-77
2021/09/17 12:31:28;;;;;;;12.05;4.15;;;22.00;99.90;;;;;;5075966;28;20052;-76
2021/09/17 12:34:12;;;;;;;5.90;3.10;;;21.90;99.90;;;;;;5062487;28;20035;-78
2021/09/17 12:36:39;;;;;;;8.68;5.97;;;21.90;99.90;;;;;;5081205;28;20478;-78
2021/09/17 12:39:07;;;;;;;8.27;4.53;;;21.90;99.90;;;;;;5079676;28;20027;-79
2021/09/17 12:41:34;;;;;;;8.05;4.20;;;21.90;99.90;;;;;;5086864;28;20108;-78
2021/09/17 12:44:10;;;;;;;6.38;4.75;;;21.80;99.90;;;;;;5083074;28;20462;-78
2021/09/17 12:46:44;;;;;;;6.10;3.10;;;22.00;99.90;;;;;;5080158;28;20032;-77